AIB324 CYKF-CYXU
Flight info
| Callsign | AIB324 |
|---|---|
| Flight time | 0h 15m |
| Altitude | 4500 |
| Route | NUBER T614 DERLO |
| Aircraft | A319/M-SDE3FGHIRWY/LB1 |
Departure
| Time | 2026-05-03 22:17 |
|---|---|
| Airport | Region of Waterloo International Airport (CYKF) |
Arrival
| Time | 2026-05-03 22:33 |
|---|---|
| Airport | London International Airport (CYXU) |
| Time | Latitude | Longitude | Altitude | Speed | Heading |
|---|---|---|---|---|---|
| 2026-05-03 22:06 | 43.45626 | -80.38501 | 1036 ft | 0 kts | 218° |
| 2026-05-03 22:10 | 43.45627 | -80.38500 | 1036 ft | 2 kts | 218° |
| 2026-05-03 22:10 | 43.45643 | -80.38483 | 1036 ft | 4 kts | 224° |
| 2026-05-03 22:10 | 43.45657 | -80.38455 | 1036 ft | 4 kts | 265° |
| 2026-05-03 22:11 | 43.45654 | -80.38431 | 1041 ft | 0 kts | 308° |
| 2026-05-03 22:12 | 43.45656 | -80.38436 | 1041 ft | 2 kts | 308° |
| 2026-05-03 22:13 | 43.45672 | -80.38464 | 1036 ft | 6 kts | 308° |
| 2026-05-03 22:13 | 43.45704 | -80.38520 | 1036 ft | 9 kts | 308° |
| 2026-05-03 22:13 | 43.45753 | -80.38575 | 1036 ft | 9 kts | 8° |
| 2026-05-03 22:13 | 43.45791 | -80.38497 | 1036 ft | 12 kts | 64° |
| 2026-05-03 22:14 | 43.45835 | -80.38369 | 1036 ft | 19 kts | 64° |
| 2026-05-03 22:14 | 43.45895 | -80.38190 | 1036 ft | 21 kts | 65° |
| 2026-05-03 22:14 | 43.45959 | -80.38001 | 1036 ft | 22 kts | 65° |
| 2026-05-03 22:14 | 43.46026 | -80.37804 | 1036 ft | 23 kts | 65° |
| 2026-05-03 22:15 | 43.46028 | -80.37795 | 1036 ft | 23 kts | 65° |
| 2026-05-03 22:15 | 43.46052 | -80.37724 | 1036 ft | 23 kts | 65° |
| 2026-05-03 22:15 | 43.46122 | -80.37517 | 1036 ft | 24 kts | 67° |
| 2026-05-03 22:15 | 43.46196 | -80.37303 | 1037 ft | 25 kts | 64° |
| 2026-05-03 22:16 | 43.46270 | -80.37080 | 1037 ft | 26 kts | 65° |
| 2026-05-03 22:16 | 43.46347 | -80.36849 | 1037 ft | 27 kts | 65° |
| 2026-05-03 22:16 | 43.46415 | -80.36643 | 1037 ft | 15 kts | 65° |
| 2026-05-03 22:16 | 43.46499 | -80.36566 | 1037 ft | 17 kts | 12° |
| 2026-05-03 22:17 | 43.46590 | -80.36613 | 1037 ft | 13 kts | 281° |
| 2026-05-03 22:17 | 43.46526 | -80.36817 | 1036 ft | 60 kts | 245° |
| 2026-05-03 22:17 | 43.46185 | -80.37828 | 1160 ft | 157 kts | 245° |
| 2026-05-03 22:17 | 43.45696 | -80.39271 | 2314 ft | 168 kts | 245° |
| 2026-05-03 22:18 | 43.45125 | -80.40609 | 3883 ft | 164 kts | 234° |
| 2026-05-03 22:18 | 43.44139 | -80.41372 | 3994 ft | 171 kts | 196° |
| 2026-05-03 22:18 | 43.42903 | -80.41124 | 4074 ft | 183 kts | 181° |
| 2026-05-03 22:18 | 43.41591 | -80.40869 | 4008 ft | 201 kts | 182° |
| 2026-05-03 22:19 | 43.40164 | -80.40885 | 4055 ft | 207 kts | 199° |
| 2026-05-03 22:19 | 43.38982 | -80.41893 | 4015 ft | 199 kts | 238° |
| 2026-05-03 22:19 | 43.38312 | -80.43551 | 4033 ft | 201 kts | 243° |
| 2026-05-03 22:19 | 43.37520 | -80.45181 | 3964 ft | 209 kts | 238° |
| 2026-05-03 22:20 | 43.36707 | -80.46824 | 3968 ft | 205 kts | 239° |
| 2026-05-03 22:20 | 43.35935 | -80.48418 | 3985 ft | 196 kts | 240° |
| 2026-05-03 22:20 | 43.35199 | -80.49949 | 3996 ft | 188 kts | 240° |
| 2026-05-03 22:20 | 43.34492 | -80.51427 | 4002 ft | 182 kts | 240° |
| 2026-05-03 22:21 | 43.33820 | -80.52834 | 3998 ft | 176 kts | 240° |
| 2026-05-03 22:21 | 43.33165 | -80.54213 | 4005 ft | 170 kts | 240° |
| 2026-05-03 22:21 | 43.32527 | -80.55556 | 4003 ft | 166 kts | 240° |
| 2026-05-03 22:21 | 43.31891 | -80.56890 | 4009 ft | 169 kts | 240° |
| 2026-05-03 22:22 | 43.31242 | -80.58254 | 4010 ft | 173 kts | 240° |
| 2026-05-03 22:22 | 43.30547 | -80.59730 | 4351 ft | 199 kts | 241° |
| 2026-05-03 22:22 | 43.29824 | -80.61302 | 6196 ft | 193 kts | 242° |
| 2026-05-03 22:22 | 43.29160 | -80.62766 | 8330 ft | 155 kts | 244° |
| 2026-05-03 22:23 | 43.28614 | -80.63998 | 9615 ft | 161 kts | 245° |
| 2026-05-03 22:23 | 43.27956 | -80.65601 | 7689 ft | 224 kts | 245° |
| 2026-05-03 22:23 | 43.27157 | -80.67684 | 5544 ft | 270 kts | 245° |
| 2026-05-03 22:23 | 43.26277 | -80.69913 | 5153 ft | 251 kts | 241° |
| 2026-05-03 22:24 | 43.25325 | -80.71759 | 5007 ft | 224 kts | 237° |
| 2026-05-03 22:24 | 43.24417 | -80.73352 | 4888 ft | 201 kts | 237° |
| 2026-05-03 22:24 | 43.23611 | -80.74792 | 4747 ft | 181 kts | 237° |
| 2026-05-03 22:24 | 43.22888 | -80.76140 | 4467 ft | 171 kts | 239° |
| 2026-05-03 22:25 | 43.22206 | -80.77458 | 4127 ft | 170 kts | 239° |
| 2026-05-03 22:25 | 43.21543 | -80.78774 | 4010 ft | 167 kts | 239° |
| 2026-05-03 22:25 | 43.20892 | -80.80077 | 4007 ft | 164 kts | 240° |
| 2026-05-03 22:25 | 43.20258 | -80.81361 | 4006 ft | 161 kts | 240° |
| 2026-05-03 22:26 | 43.19630 | -80.82643 | 4012 ft | 165 kts | 240° |
| 2026-05-03 22:26 | 43.18983 | -80.83976 | 4008 ft | 170 kts | 240° |
| 2026-05-03 22:26 | 43.18222 | -80.85258 | 4008 ft | 178 kts | 230° |
| 2026-05-03 22:26 | 43.17331 | -80.86474 | 4005 ft | 184 kts | 229° |
| 2026-05-03 22:27 | 43.16425 | -80.87713 | 4001 ft | 184 kts | 230° |
| 2026-05-03 22:27 | 43.15521 | -80.88947 | 3999 ft | 183 kts | 230° |
| 2026-05-03 22:27 | 43.14622 | -80.90165 | 4000 ft | 181 kts | 230° |
| 2026-05-03 22:27 | 43.13734 | -80.91368 | 4000 ft | 178 kts | 229° |
| 2026-05-03 22:28 | 43.12853 | -80.92559 | 3998 ft | 178 kts | 229° |
| 2026-05-03 22:28 | 43.11975 | -80.93747 | 3997 ft | 177 kts | 229° |
| 2026-05-03 22:28 | 43.11098 | -80.94932 | 3993 ft | 176 kts | 229° |
| 2026-05-03 22:28 | 43.10243 | -80.96087 | 3810 ft | 171 kts | 229° |
| 2026-05-03 22:29 | 43.09398 | -80.97232 | 3545 ft | 171 kts | 229° |
| 2026-05-03 22:29 | 43.08556 | -80.98373 | 3266 ft | 170 kts | 229° |
| 2026-05-03 22:29 | 43.07709 | -80.99515 | 2980 ft | 171 kts | 228° |
| 2026-05-03 22:29 | 43.06864 | -81.00653 | 2705 ft | 170 kts | 229° |
| 2026-05-03 22:30 | 43.06150 | -81.01906 | 2436 ft | 166 kts | 240° |
| 2026-05-03 22:30 | 43.05721 | -81.03363 | 2176 ft | 166 kts | 253° |
| 2026-05-03 22:30 | 43.05469 | -81.04888 | 2033 ft | 160 kts | 256° |
| 2026-05-03 22:30 | 43.05253 | -81.06313 | 1941 ft | 144 kts | 256° |
| 2026-05-03 22:31 | 43.05074 | -81.07511 | 1891 ft | 114 kts | 256° |
| 2026-05-03 22:31 | 43.04914 | -81.08545 | 1876 ft | 111 kts | 255° |
| 2026-05-03 22:31 | 43.04749 | -81.09581 | 1742 ft | 108 kts | 255° |
| 2026-05-03 22:31 | 43.04631 | -81.10532 | 1580 ft | 98 kts | 259° |
| 2026-05-03 22:32 | 43.04510 | -81.11447 | 1377 ft | 96 kts | 255° |
| 2026-05-03 22:32 | 43.04375 | -81.12323 | 1128 ft | 98 kts | 251° |
| 2026-05-03 22:32 | 43.04226 | -81.13423 | 1059 ft | 117 kts | 259° |
| 2026-05-03 22:32 | 43.04086 | -81.14409 | 935 ft | 96 kts | 253° |
| 2026-05-03 22:33 | 43.03978 | -81.15138 | 902 ft | 57 kts | 259° |
| 2026-05-03 22:33 | 43.03936 | -81.15437 | 901 ft | 12 kts | 259° |
| 2026-05-03 22:33 | 43.03889 | -81.15769 | 901 ft | 38 kts | 260° |
| 2026-05-03 22:33 | 43.03787 | -81.15786 | 906 ft | 18 kts | 136° |